aviador You're here:

LFBC Decoded Metar

CAZAUX in FRANCE
Report Time2017-09-25 18:30:00
UTC Time2017-09-25 18:37:54
Flight Rules vfr VFR
Wind320° at 05 kt
W.Decomp.*RWY 24: 0.8 kt HW 4.9 kt RCW
W.Rank320° ranks 6
Current wind is below 320° avg. (7.4)
Visibility9999 m
Phenomena:N/A
Clouds:Few 022 Hf
Scattered 038 Hf
Expected CloudBase > 1,200 ft AGL from Temp-Dew spread
CeilingNone
Temp17°C (ISA +2)
Dew Point14°C (83% RH)
AAT16.5°C
QNH1022 hPa
Density Alt279 ft
Elevation108 ft
Report Wrong Elevation
Raw Report
METAR LFBC 251830Z AUTO 32005KT 9999 FEW022 SCT038 17/14 Q1022 NOSIG=

Extra information for LFBC:More info

Metar Taf Metar & Taf Last 4 Metars F.Rules Stats Wind Profile Meteogram Temp Stats Airport Information Weather charts Add Link Nearby VenuesMetar ALERT Operation Metar Decoded Social comments